createdAt,value
2022-12-11T00:01:21.700Z,3.37
2022-12-11T00:03:51.607Z,3.32
2022-12-11T00:06:22.958Z,3.35
2022-12-11T00:08:53.538Z,3.34
2022-12-11T00:11:24.102Z,3.39
2022-12-11T00:14:00.564Z,3.40
2022-12-11T00:16:46.360Z,3.37
2022-12-11T00:19:15.587Z,3.54
2022-12-11T00:21:52.597Z,3.45
2022-12-11T00:24:23.482Z,3.60
2022-12-11T00:26:55.478Z,3.35
2022-12-11T00:29:41.091Z,3.24
2022-12-11T00:32:10.612Z,3.42
2022-12-11T00:34:40.406Z,3.49
2022-12-11T00:37:14.651Z,3.49
2022-12-11T00:39:51.344Z,3.59
2022-12-11T00:42:23.656Z,3.48
2022-12-11T00:44:56.546Z,3.40
2022-12-11T00:47:24.963Z,3.33
2022-12-11T00:49:53.833Z,3.35
2022-12-11T00:52:28.012Z,3.27
2022-12-11T00:54:56.511Z,3.22
2022-12-11T00:57:33.043Z,3.40
2022-12-11T01:00:09.652Z,3.32
2022-12-11T01:02:41.448Z,3.38
2022-12-11T01:05:14.329Z,3.44
2022-12-11T01:07:49.096Z,3.28
2022-12-11T01:10:29.524Z,3.25
2022-12-11T01:13:04.079Z,3.24
2022-12-11T01:15:44.512Z,3.06
2022-12-11T01:18:16.157Z,3.17
2022-12-11T01:20:46.458Z,3.12
2022-12-11T01:23:15.460Z,3.26
2022-12-11T01:25:46.553Z,3.11
2022-12-11T01:28:16.155Z,3.17
2022-12-11T01:30:46.227Z,3.27
2022-12-11T01:33:15.520Z,3.19
2022-12-11T01:35:44.562Z,3.40
2022-12-11T01:38:17.867Z,3.39
2022-12-11T01:40:57.229Z,3.29
2022-12-11T01:43:26.751Z,3.37
2022-12-11T01:46:01.487Z,3.46
2022-12-11T01:48:42.453Z,3.25
2022-12-11T01:51:11.672Z,3.48
2022-12-11T01:53:42.823Z,3.36
2022-12-11T01:56:13.945Z,3.37
2022-12-11T01:58:51.868Z,3.36
2022-12-11T02:01:31.045Z,3.25
2022-12-11T02:04:03.143Z,3.10
2022-12-11T02:06:34.030Z,3.09
2022-12-11T02:09:05.437Z,3.14
2022-12-11T02:11:47.626Z,3.01
2022-12-11T02:14:26.835Z,2.97
2022-12-11T02:17:04.797Z,3.18
2022-12-11T02:19:56.750Z,3.12
2022-12-11T02:22:34.949Z,3.19
2022-12-11T02:25:12.662Z,3.17
2022-12-11T02:28:01.034Z,3.30
2022-12-11T02:30:43.652Z,3.34
2022-12-11T02:33:16.449Z,3.09
2022-12-11T02:35:49.851Z,3.06
2022-12-11T02:38:21.110Z,2.74
2022-12-11T02:40:59.433Z,3.01
2022-12-11T02:43:31.871Z,3.11
2022-12-11T02:46:04.855Z,3.02
2022-12-11T02:48:36.877Z,3.12
2022-12-11T02:51:08.782Z,3.37
2022-12-11T02:53:47.111Z,3.10
2022-12-11T02:56:28.962Z,3.19
2022-12-11T02:59:04.869Z,3.08
2022-12-11T03:01:44.548Z,3.05
2022-12-11T03:04:12.788Z,3.04
2022-12-11T03:06:45.543Z,2.99
2022-12-11T03:09:16.974Z,2.76
2022-12-11T03:11:51.967Z,2.95
2022-12-11T03:14:21.526Z,2.70
2022-12-11T03:17:11.098Z,2.75
2022-12-11T03:19:46.688Z,2.84
2022-12-11T03:22:21.082Z,2.96
2022-12-11T03:24:52.570Z,2.87
2022-12-11T03:27:35.660Z,2.90
2022-12-11T03:30:20.973Z,2.81
2022-12-11T03:33:07.175Z,2.57
2022-12-11T03:35:37.428Z,2.80
2022-12-11T03:38:08.872Z,2.63
2022-12-11T03:40:38.316Z,2.59
2022-12-11T03:43:07.083Z,2.69
2022-12-11T03:45:36.043Z,2.76
2022-12-11T03:48:07.263Z,2.70
2022-12-11T03:50:40.892Z,2.68
2022-12-11T03:53:12.725Z,2.81
2022-12-11T03:55:42.929Z,2.75
2022-12-11T03:58:14.847Z,2.67
2022-12-11T04:00:56.548Z,2.48
2022-12-11T04:03:40.745Z,2.61
2022-12-11T04:06:09.640Z,2.57
2022-12-11T04:08:48.064Z,2.62
2022-12-11T04:11:35.849Z,2.53
2022-12-11T04:14:25.956Z,2.63
2022-12-11T04:17:03.706Z,2.45
2022-12-11T04:19:50.876Z,2.72
2022-12-11T04:22:39.915Z,2.65
2022-12-11T04:25:09.488Z,2.53
2022-12-11T04:27:55.622Z,2.37
2022-12-11T04:30:41.570Z,2.53
2022-12-11T04:33:10.448Z,2.46
2022-12-11T04:35:56.167Z,2.31
2022-12-11T04:38:34.093Z,2.37
2022-12-11T04:41:03.156Z,2.30
2022-12-11T04:43:31.651Z,2.33
2022-12-11T04:46:14.776Z,2.25
2022-12-11T04:48:44.278Z,2.17
2022-12-11T04:51:20.395Z,2.08
2022-12-11T04:53:51.127Z,2.08
2022-12-11T04:56:25.514Z,2.08
2022-12-11T04:58:54.541Z,2.00
2022-12-11T05:01:24.939Z,2.01
2022-12-11T05:04:01.368Z,2.01
2022-12-11T05:06:32.241Z,1.95
2022-12-11T05:09:02.957Z,2.08
2022-12-11T05:11:35.262Z,2.17
2022-12-11T05:14:09.584Z,2.08
2022-12-11T05:16:41.589Z,2.11
2022-12-11T05:19:21.812Z,2.01
2022-12-11T05:22:01.084Z,1.84
2022-12-11T05:24:31.142Z,1.93
2022-12-11T05:27:01.449Z,1.79
2022-12-11T05:29:32.125Z,1.83
2022-12-11T05:32:07.730Z,1.85
2022-12-11T05:34:43.665Z,1.91
2022-12-11T05:37:21.310Z,1.80
2022-12-11T05:40:00.965Z,1.89
2022-12-11T05:42:34.956Z,1.96
2022-12-11T05:45:05.683Z,1.91
2022-12-11T05:47:38.977Z,1.94
2022-12-11T05:50:12.516Z,1.86
2022-12-11T05:52:51.041Z,1.89
2022-12-11T05:55:29.132Z,1.72
2022-12-11T05:58:05.334Z,1.84
2022-12-11T06:00:36.300Z,1.85
2022-12-11T06:03:08.501Z,2.06
2022-12-11T06:05:50.757Z,1.99
2022-12-11T06:08:23.196Z,1.86
2022-12-11T06:10:52.244Z,1.76
2022-12-11T06:13:21.771Z,1.75
2022-12-11T06:15:50.873Z,1.66
2022-12-11T06:18:21.972Z,1.92
2022-12-11T06:21:01.649Z,1.93
2022-12-11T06:23:32.676Z,2.08
2022-12-11T06:26:07.448Z,1.82
2022-12-11T06:28:37.237Z,1.76
2022-12-11T06:31:09.569Z,1.95
2022-12-11T06:33:45.796Z,2.04
2022-12-11T06:36:17.602Z,2.04
2022-12-11T06:38:58.384Z,1.99
2022-12-11T06:41:26.887Z,2.06
2022-12-11T06:43:56.368Z,2.07
2022-12-11T06:46:33.769Z,2.10
2022-12-11T06:49:06.548Z,2.05
2022-12-11T06:51:37.624Z,2.03
2022-12-11T06:54:25.810Z,2.07
2022-12-11T06:56:55.481Z,1.94
2022-12-11T06:59:27.629Z,1.93
2022-12-11T07:01:59.228Z,2.12
2022-12-11T07:04:28.552Z,2.08
2022-12-11T07:06:57.337Z,2.00
2022-12-11T07:09:41.504Z,1.90
2022-12-11T07:12:11.500Z,1.99
2022-12-11T07:14:48.195Z,1.80
2022-12-11T07:17:17.941Z,1.77
2022-12-11T07:19:49.849Z,1.85
2022-12-11T07:22:20.213Z,1.87
2022-12-11T07:25:03.858Z,1.75
2022-12-11T07:27:34.544Z,1.96
2022-12-11T07:30:15.685Z,1.76
2022-12-11T07:32:46.459Z,1.81
2022-12-11T07:35:16.632Z,1.69
2022-12-11T07:37:47.149Z,1.84
2022-12-11T07:40:27.813Z,2.11
2022-12-11T07:43:02.011Z,2.00
2022-12-11T07:45:42.349Z,1.88
2022-12-11T07:48:20.110Z,1.82
2022-12-11T07:50:48.453Z,1.86
2022-12-11T07:53:16.753Z,1.75
2022-12-11T07:55:47.813Z,1.81
2022-12-11T07:58:17.210Z,1.96
2022-12-11T08:00:49.734Z,2.21
2022-12-11T08:03:18.360Z,2.16
2022-12-11T08:05:49.941Z,2.21
2022-12-11T08:08:18.907Z,2.03
2022-12-11T08:11:04.957Z,1.92
2022-12-11T08:13:50.201Z,2.03
2022-12-11T08:16:28.305Z,2.07
2022-12-11T08:19:01.165Z,2.00
2022-12-11T08:21:37.643Z,2.01
2022-12-11T08:24:17.570Z,1.97
2022-12-11T08:26:56.892Z,2.17
2022-12-11T08:29:31.509Z,2.05
2022-12-11T08:32:04.368Z,1.95
2022-12-11T08:34:39.796Z,2.14
2022-12-11T08:37:09.880Z,2.20
2022-12-11T08:39:41.659Z,2.33
2022-12-11T08:42:11.359Z,2.01
2022-12-11T08:44:39.633Z,2.30
2022-12-11T08:47:11.032Z,2.36
2022-12-11T08:49:40.657Z,2.33
2022-12-11T08:52:08.898Z,2.14
2022-12-11T08:54:42.915Z,2.18
2022-12-11T08:57:13.987Z,2.44
2022-12-11T08:59:47.445Z,2.48
2022-12-11T09:02:15.790Z,2.44
2022-12-11T09:05:00.293Z,2.22
2022-12-11T09:07:36.675Z,2.10
2022-12-11T09:10:07.428Z,2.07
2022-12-11T09:12:39.048Z,2.05
2022-12-11T09:15:10.835Z,1.98
2022-12-11T09:17:39.090Z,2.26
2022-12-11T09:20:12.391Z,2.07
2022-12-11T09:22:43.471Z,2.34
2022-12-11T09:25:11.985Z,2.26
2022-12-11T09:27:56.513Z,2.33
2022-12-11T09:30:25.981Z,2.26
2022-12-11T09:33:00.675Z,2.38
2022-12-11T09:35:30.452Z,2.30
2022-12-11T09:37:59.906Z,2.37
2022-12-11T09:40:39.947Z,2.46
2022-12-11T09:43:23.716Z,2.65
2022-12-11T09:45:55.798Z,2.43
2022-12-11T09:48:33.971Z,2.49
2022-12-11T09:51:11.891Z,2.54
2022-12-11T09:53:39.994Z,2.58
2022-12-11T09:56:18.081Z,2.35
2022-12-11T09:59:01.389Z,2.56
2022-12-11T10:01:44.300Z,2.63
2022-12-11T10:04:40.933Z,2.71
2022-12-11T10:07:18.949Z,2.54
2022-12-11T10:09:53.723Z,2.67
2022-12-11T10:12:34.465Z,2.53
2022-12-11T10:15:33.935Z,2.51
2022-12-11T10:18:12.186Z,2.84
2022-12-11T10:20:46.883Z,2.81
2022-12-11T10:23:23.470Z,2.92
2022-12-11T10:26:01.225Z,3.03
2022-12-11T10:28:31.558Z,3.13
2022-12-11T10:31:14.665Z,3.13
2022-12-11T10:33:49.716Z,3.36
2022-12-11T10:36:31.325Z,3.19
2022-12-11T10:38:59.721Z,3.27
2022-12-11T10:41:40.938Z,2.93
2022-12-11T10:44:19.365Z,3.17
2022-12-11T10:47:06.727Z,2.96
2022-12-11T10:49:37.604Z,2.85
2022-12-11T10:52:11.946Z,2.62
2022-12-11T10:54:42.259Z,2.67
2022-12-11T10:57:15.292Z,2.53
2022-12-11T10:59:48.322Z,2.79
2022-12-11T11:02:27.054Z,2.83
2022-12-11T11:04:57.838Z,3.06
2022-12-11T11:07:34.564Z,2.66
2022-12-11T11:10:21.018Z,2.67
2022-12-11T11:12:50.599Z,2.41
2022-12-11T11:15:25.219Z,2.45
2022-12-11T11:17:59.912Z,2.65
2022-12-11T11:20:38.953Z,2.81
2022-12-11T11:23:14.960Z,2.72
2022-12-11T11:25:59.916Z,2.65
2022-12-11T11:28:32.708Z,2.71
2022-12-11T11:31:04.352Z,2.91
2022-12-11T11:33:39.095Z,2.79
2022-12-11T11:36:22.710Z,2.92
2022-12-11T11:39:07.591Z,2.95
2022-12-11T11:41:47.346Z,2.78
2022-12-11T11:44:20.157Z,2.73
2022-12-11T11:47:01.985Z,2.85
2022-12-11T11:49:55.334Z,2.64
2022-12-11T11:52:31.311Z,2.58
2022-12-11T11:55:10.790Z,2.65
2022-12-11T11:57:46.868Z,2.61
2022-12-11T12:00:28.883Z,2.68
2022-12-11T12:03:13.888Z,2.52
2022-12-11T12:05:56.223Z,2.56
2022-12-11T12:08:37.618Z,2.40
2022-12-11T12:11:17.368Z,2.37
2022-12-11T12:13:56.511Z,2.22
2022-12-11T12:16:53.997Z,2.20
2022-12-11T12:19:37.582Z,2.33
2022-12-11T12:22:15.915Z,2.59
2022-12-11T12:25:09.693Z,2.46
2022-12-11T12:27:53.860Z,2.53
2022-12-11T12:30:27.834Z,2.23
2022-12-11T12:36:27.804Z,2.15
2022-12-11T12:39:05.193Z,2.04
2022-12-11T12:41:44.200Z,2.04
2022-12-11T12:44:18.340Z,2.07
2022-12-11T12:46:58.780Z,2.13
2022-12-11T12:49:52.066Z,2.15
2022-12-11T12:52:35.468Z,2.11
2022-12-11T12:55:23.258Z,2.49
2022-12-11T12:57:57.959Z,2.31
2022-12-11T13:00:34.951Z,2.33
2022-12-11T13:03:05.030Z,2.37
2022-12-11T13:05:37.293Z,2.47
2022-12-11T13:08:11.869Z,2.33
2022-12-11T13:10:48.555Z,2.31
2022-12-11T13:13:54.489Z,2.04
2022-12-11T13:16:33.118Z,2.21
2022-12-11T13:19:01.980Z,2.17
2022-12-11T13:21:37.849Z,2.08
2022-12-11T13:24:28.521Z,1.87
2022-12-11T13:27:26.191Z,1.80
2022-12-11T13:30:11.145Z,1.78
2022-12-11T13:32:46.054Z,1.88
2022-12-11T13:35:21.289Z,1.99
2022-12-11T13:37:58.938Z,2.09
2022-12-11T13:40:35.013Z,2.02
2022-12-11T13:43:18.701Z,1.96
2022-12-11T13:45:58.442Z,2.18
2022-12-11T13:48:38.599Z,2.10
2022-12-11T13:51:10.118Z,2.08
2022-12-11T13:53:42.227Z,2.11
2022-12-11T13:56:23.005Z,2.00
2022-12-11T13:58:57.963Z,1.84
2022-12-11T14:01:31.201Z,2.03
2022-12-11T14:04:08.157Z,2.01
2022-12-11T14:06:43.374Z,2.06
2022-12-11T14:09:20.568Z,1.85
2022-12-11T14:11:58.212Z,1.95
2022-12-11T14:14:43.235Z,1.85
2022-12-11T14:17:14.845Z,1.89
2022-12-11T14:19:49.058Z,1.90
2022-12-11T14:22:27.355Z,1.91
2022-12-11T14:25:00.082Z,2.03
2022-12-11T14:27:29.056Z,2.01
2022-12-11T14:30:21.360Z,1.75
2022-12-11T14:33:00.875Z,1.68
2022-12-11T14:35:38.960Z,1.89
2022-12-11T14:38:15.420Z,1.94
2022-12-11T14:40:52.937Z,1.83
2022-12-11T14:43:27.005Z,1.83
2022-12-11T14:46:04.250Z,1.66
2022-12-11T14:48:38.936Z,1.72
2022-12-11T14:51:27.705Z,1.68
2022-12-11T14:54:05.301Z,1.92
2022-12-11T14:56:51.495Z,1.82
2022-12-11T14:59:32.643Z,1.85
2022-12-11T15:02:06.459Z,1.76
2022-12-11T15:04:41.379Z,1.71
2022-12-11T15:07:26.781Z,1.68
2022-12-11T15:09:57.863Z,1.73
2022-12-11T15:12:29.342Z,1.73
2022-12-11T15:15:02.698Z,1.58
2022-12-11T15:17:35.084Z,1.68
2022-12-11T15:20:14.527Z,1.68
2022-12-11T15:22:44.855Z,1.51
2022-12-11T15:25:21.227Z,1.61
2022-12-11T15:27:56.245Z,1.82
2022-12-11T15:30:36.084Z,1.76
2022-12-11T15:33:37.818Z,1.77
2022-12-11T15:36:29.170Z,1.56
2022-12-11T15:39:03.452Z,1.41
2022-12-11T15:41:35.350Z,1.40
2022-12-11T15:44:19.406Z,1.61
2022-12-11T15:46:53.361Z,1.62
2022-12-11T15:49:39.754Z,1.49
2022-12-11T15:52:09.930Z,1.54
2022-12-11T15:54:54.951Z,1.49
2022-12-11T15:57:34.090Z,1.75
2022-12-11T16:00:06.443Z,1.49
2022-12-11T16:02:39.267Z,1.54
2022-12-11T16:05:10.683Z,1.72
2022-12-11T16:07:39.493Z,1.54
2022-12-11T16:10:17.324Z,1.58
2022-12-11T16:12:47.736Z,1.44
2022-12-11T16:15:23.159Z,1.48
2022-12-11T16:17:59.785Z,1.29
2022-12-11T16:20:29.441Z,1.47
2022-12-11T16:22:59.604Z,1.44
2022-12-11T16:25:28.597Z,1.59
2022-12-11T16:27:58.425Z,1.45
2022-12-11T16:30:28.929Z,1.69
2022-12-11T16:33:08.573Z,1.69
2022-12-11T16:35:42.987Z,1.49
2022-12-11T16:38:14.082Z,1.51
2022-12-11T16:40:43.101Z,1.55
2022-12-11T16:43:11.907Z,1.50
2022-12-11T16:45:42.112Z,1.55
2022-12-11T16:48:21.960Z,1.56
2022-12-11T16:51:10.382Z,1.57
2022-12-11T16:53:48.390Z,1.72
2022-12-11T16:56:19.119Z,1.58
2022-12-11T16:58:49.905Z,1.51
2022-12-11T17:01:19.458Z,1.65
2022-12-11T17:03:51.119Z,1.63
2022-12-11T17:06:33.926Z,1.65
2022-12-11T17:09:02.869Z,1.56
2022-12-11T17:11:32.056Z,1.68
2022-12-11T17:14:03.651Z,1.62
2022-12-11T17:16:48.288Z,1.41
2022-12-11T17:19:27.153Z,1.56
2022-12-11T17:22:05.215Z,1.37
2022-12-11T17:24:40.885Z,1.43
2022-12-11T17:27:25.975Z,1.02
2022-12-11T17:30:05.506Z,0.97
2022-12-11T17:32:57.118Z,1.16
2022-12-11T17:35:29.772Z,1.03
2022-12-11T17:38:12.893Z,1.02
2022-12-11T17:40:50.347Z,1.38
2022-12-11T17:43:24.716Z,1.02
2022-12-11T17:45:55.832Z,1.02
2022-12-11T17:48:30.204Z,1.04
2022-12-11T17:51:13.206Z,0.99
2022-12-11T17:53:46.667Z,1.08
2022-12-11T17:56:17.203Z,0.80
2022-12-11T17:58:46.969Z,0.63
2022-12-11T18:01:21.865Z,0.97
2022-12-11T18:04:06.841Z,0.99
2022-12-11T18:06:40.786Z,0.90
2022-12-11T18:09:21.982Z,0.71
2022-12-11T18:11:52.220Z,1.01
2022-12-11T18:14:23.692Z,1.00
2022-12-11T18:16:54.167Z,0.76
2022-12-11T18:19:34.270Z,0.77
2022-12-11T18:22:18.436Z,0.89
2022-12-11T18:25:09.580Z,0.95
2022-12-11T18:27:52.041Z,0.60
2022-12-11T18:30:37.493Z,0.66
2022-12-11T18:33:07.674Z,0.62
2022-12-11T18:35:52.069Z,0.56
2022-12-11T18:38:24.835Z,0.37
2022-12-11T18:41:02.283Z,0.55
2022-12-11T18:43:34.278Z,0.34
2022-12-11T18:46:24.471Z,0.36
2022-12-11T18:48:58.296Z,0.65
2022-12-11T18:51:34.613Z,0.51
2022-12-11T18:54:15.694Z,0.47
2022-12-11T18:56:48.440Z,0.63
2022-12-11T18:59:25.661Z,0.82
2022-12-11T19:02:05.324Z,0.38
2022-12-11T19:04:39.349Z,0.82
2022-12-11T19:07:16.970Z,0.81
2022-12-11T19:09:48.425Z,0.79
2022-12-11T19:12:43.328Z,0.75
2022-12-11T19:15:22.265Z,0.76
2022-12-11T19:17:57.936Z,0.71
2022-12-11T19:20:49.166Z,0.87
2022-12-11T19:23:31.334Z,0.76
2022-12-11T19:29:39.662Z,0.71
2022-12-11T19:32:20.775Z,0.79
2022-12-11T19:35:06.180Z,0.82
2022-12-11T19:37:58.996Z,1.15
2022-12-11T19:40:38.569Z,0.79
2022-12-11T19:43:08.889Z,0.98
2022-12-11T19:45:43.717Z,0.95
2022-12-11T19:48:21.395Z,0.76
2022-12-11T19:50:52.324Z,0.80
2022-12-11T19:53:43.894Z,0.78
2022-12-11T19:56:19.661Z,0.85
2022-12-11T19:58:55.205Z,0.71
2022-12-11T20:01:36.066Z,1.20
2022-12-11T20:04:14.913Z,0.88
2022-12-11T20:06:56.920Z,0.99
2022-12-11T20:09:38.798Z,0.86
2022-12-11T20:12:10.909Z,0.90
2022-12-11T20:14:49.254Z,0.86
2022-12-11T20:17:27.031Z,0.75
2022-12-11T20:19:57.175Z,1.00
2022-12-11T20:22:27.199Z,0.98
2022-12-11T20:24:57.695Z,1.06
2022-12-11T20:27:28.707Z,0.79
2022-12-11T20:29:58.223Z,0.85
2022-12-11T20:32:29.732Z,0.90
2022-12-11T20:34:59.634Z,0.78
2022-12-11T20:37:30.552Z,1.11
2022-12-11T20:40:09.593Z,1.28
2022-12-11T20:42:40.023Z,1.15
2022-12-11T20:45:12.799Z,1.23
2022-12-11T20:47:44.564Z,0.99
2022-12-11T20:50:15.255Z,0.88
2022-12-11T20:52:44.419Z,0.91
2022-12-11T20:55:17.120Z,0.89
2022-12-11T20:57:47.964Z,0.79
2022-12-11T21:00:19.865Z,1.03
2022-12-11T21:02:51.428Z,1.30
2022-12-11T21:05:23.622Z,1.05
2022-12-11T21:07:57.108Z,1.17
2022-12-11T21:10:26.017Z,1.17
2022-12-11T21:12:55.530Z,0.99
2022-12-11T21:15:24.770Z,0.75
2022-12-11T21:17:55.491Z,0.94
2022-12-11T21:20:26.098Z,1.07
2022-12-11T21:22:55.308Z,1.17
2022-12-11T21:25:23.919Z,0.99
2022-12-11T21:27:52.962Z,0.88
2022-12-11T21:30:21.549Z,0.91
2022-12-11T21:32:50.269Z,0.99
2022-12-11T21:35:20.666Z,1.01
2022-12-11T21:37:49.867Z,0.92
2022-12-11T21:40:18.159Z,0.84
2022-12-11T21:42:46.367Z,0.63
2022-12-11T21:45:52.352Z,1.19
2022-12-11T21:48:03.632Z,0.93
2022-12-11T21:50:33.702Z,1.06
2022-12-11T21:53:02.708Z,1.10
2022-12-11T21:55:30.925Z,1.14
2022-12-11T21:57:59.072Z,0.74
2022-12-11T22:00:29.076Z,0.82
2022-12-11T22:02:57.139Z,0.77
2022-12-11T22:05:25.480Z,0.86
2022-12-11T22:07:55.435Z,0.98
2022-12-11T22:10:23.704Z,0.71
2022-12-11T22:12:51.746Z,0.83
2022-12-11T22:15:19.847Z,0.84
2022-12-11T22:17:48.007Z,0.90
2022-12-11T22:20:16.068Z,0.75
2022-12-11T22:22:44.154Z,0.71
2022-12-11T22:25:14.057Z,0.77
2022-12-11T22:27:42.465Z,0.81
2022-12-11T22:30:12.024Z,0.93
2022-12-11T22:32:40.355Z,0.82
2022-12-11T22:35:09.289Z,0.88
2022-12-11T22:37:37.532Z,1.02
2022-12-11T22:40:06.768Z,0.74
2022-12-11T22:42:36.479Z,0.70
2022-12-11T22:45:05.047Z,0.91
2022-12-11T22:47:33.186Z,0.83
2022-12-11T22:50:01.235Z,0.74
2022-12-11T22:52:29.905Z,0.82
2022-12-11T22:54:58.080Z,0.56
2022-12-11T22:57:26.127Z,0.78
2022-12-11T22:59:57.090Z,0.85
2022-12-11T23:02:25.350Z,0.81
2022-12-11T23:04:53.444Z,0.63
2022-12-11T23:07:21.475Z,0.70
2022-12-11T23:09:49.554Z,0.58
2022-12-11T23:12:18.889Z,0.76
2022-12-11T23:14:47.028Z,0.50
2022-12-11T23:17:16.522Z,0.55
2022-12-11T23:19:46.009Z,0.53
2022-12-11T23:22:14.282Z,0.65
2022-12-11T23:24:42.541Z,0.44
2022-12-11T23:27:10.921Z,0.46
2022-12-11T23:29:39.214Z,0.55
2022-12-11T23:32:07.274Z,0.40
2022-12-11T23:34:37.652Z,0.46
2022-12-11T23:37:05.724Z,0.43
2022-12-11T23:39:33.802Z,0.29
2022-12-11T23:42:02.110Z,0.33
2022-12-11T23:44:30.133Z,0.28
2022-12-11T23:47:12.225Z,0.36
2022-12-11T23:49:58.531Z,0.33
2022-12-11T23:52:30.675Z,0.67
2022-12-11T23:55:00.290Z,0.44
2022-12-11T23:57:29.232Z,0.38
